Time;durP1;ratioP1;P1;durP2;ratioP2;P2;SDS_P1;SDS_P2;PMS_P1;PMS_P2;Temp;Humidity;BMP_temperature;BMP_pressure;BME280_temperature;BME280_humidity;BME280_pressure;Samples;Min_cycle;Max_cycle;Signal;HPM_P1;HPM_P2
2021/12/23 00:02:14;;;;;;;52.67;21.88;;;-4.40;77.80;;;;;;5055690;28;20037;-76
2021/12/23 00:04:39;;;;;;;55.88;21.67;;;-4.50;78.00;;;;;;5055565;28;20107;-74
2021/12/23 00:07:05;;;;;;;52.95;20.92;;;-4.60;78.20;;;;;;5055334;28;20044;-79
2021/12/23 00:10:03;;;;;;;64.82;23.77;;;-4.60;79.00;;;;;;5055543;28;20025;-78
2021/12/23 00:12:22;;;;;;;64.40;25.65;;;-4.60;78.90;;;;;;5055256;28;20353;-73
2021/12/23 00:14:50;;;;;;;55.58;22.85;;;-4.70;79.00;;;;;;5055110;28;20029;-74
2021/12/23 00:17:28;;;;;;;50.13;20.85;;;-4.70;79.30;;;;;;5055186;28;20013;-74
2021/12/23 00:25:16;;;;;;;41.50;18.13;;;-4.60;79.40;;;;;;5055178;28;20449;-73
2021/12/23 00:27:42;;;;;;;43.83;18.45;;;-4.50;79.50;;;;;;5055213;28;20108;-73
2021/12/23 00:30:08;;;;;;;39.63;16.95;;;-4.60;79.00;;;;;;5054989;28;20091;-73
2021/12/23 00:32:35;;;;;;;40.47;18.13;;;-4.60;78.90;;;;;;5055120;28;20056;-72
2021/12/23 00:35:00;;;;;;;41.83;17.58;;;-4.60;78.80;;;;;;5054779;28;20136;-74
2021/12/23 00:37:35;;;;;;;44.55;18.95;;;-4.50;78.90;;;;;;5055031;28;20315;-73
2021/12/23 00:40:00;;;;;;;45.03;19.92;;;-4.40;78.00;;;;;;5054857;28;20048;-72
2021/12/23 00:42:26;;;;;;;51.20;21.10;;;-4.40;77.70;;;;;;5054889;28;20051;-72
2021/12/23 00:44:51;;;;;;;46.42;20.70;;;-4.30;77.30;;;;;;5054800;28;20035;-72
2021/12/23 00:47:17;;;;;;;50.53;19.90;;;-4.30;77.00;;;;;;5054715;28;20037;-73
2021/12/23 00:49:42;;;;;;;46.63;19.67;;;-4.30;76.60;;;;;;5054818;28;20021;-72
2021/12/23 00:52:08;;;;;;;53.10;21.42;;;-4.30;76.60;;;;;;5054663;28;20465;-72
2021/12/23 00:54:35;;;;;;;48.35;20.90;;;-4.30;76.60;;;;;;5054562;28;20032;-72
2021/12/23 00:57:00;;;;;;;49.63;20.38;;;-4.20;76.60;;;;;;5054486;28;20029;-72
2021/12/23 00:59:26;;;;;;;42.40;17.75;;;-4.20;76.70;;;;;;5054517;28;20051;-71
2021/12/23 01:01:52;;;;;;;40.97;16.73;;;-4.20;76.80;;;;;;5054144;28;20079;-72
2021/12/23 01:04:17;;;;;;;38.03;16.80;;;-4.30;76.30;;;;;;5054261;28;20500;-74
2021/12/23 01:06:43;;;;;;;44.42;18.85;;;-4.50;76.30;;;;;;5054237;28;20029;-72
2021/12/23 01:09:09;;;;;;;41.67;17.70;;;-4.60;77.00;;;;;;5054432;28;20024;-73
2021/12/23 01:11:35;;;;;;;44.25;18.20;;;-4.70;78.50;;;;;;5069781;28;20021;-72
2021/12/23 01:19:23;;;;;;;44.17;18.80;;;-4.40;78.20;;;;;;5054204;28;20052;-72
2021/12/23 01:21:49;;;;;;;43.20;17.40;;;-4.30;77.90;;;;;;5054271;28;20105;-73
2021/12/23 01:24:15;;;;;;;39.78;16.88;;;-4.30;77.70;;;;;;5054041;28;20021;-73
2021/12/23 01:26:41;;;;;;;45.45;19.17;;;-4.30;77.50;;;;;;5054296;28;20064;-74
2021/12/23 01:29:07;;;;;;;49.70;19.38;;;-4.30;77.10;;;;;;5054011;28;20039;-72
2021/12/23 01:31:34;;;;;;;47.72;18.77;;;-4.30;77.00;;;;;;5053959;28;20112;-72
2021/12/23 01:34:00;;;;;;;51.38;20.20;;;-4.30;76.80;;;;;;5069058;28;20049;-72
2021/12/23 01:36:26;;;;;;;46.80;19.20;;;-4.20;76.80;;;;;;5054169;28;20025;-72
2021/12/23 01:38:52;;;;;;;50.50;19.98;;;-4.20;76.70;;;;;;5054243;28;20037;-72
2021/12/23 01:41:18;;;;;;;46.05;19.48;;;-4.20;76.40;;;;;;5054143;28;20017;-72
2021/12/23 01:43:44;;;;;;;50.38;20.52;;;-4.30;76.20;;;;;;5053928;28;20502;-72
2021/12/23 01:46:10;;;;;;;52.75;21.17;;;-4.30;76.20;;;;;;5053904;28;20029;-72
2021/12/23 01:48:36;;;;;;;54.50;21.73;;;-4.20;75.90;;;;;;5035858;28;20033;-73
2021/12/23 01:51:02;;;;;;;47.03;19.85;;;-4.20;75.80;;;;;;5054010;28;20021;-73
2021/12/23 01:53:27;;;;;;;47.50;19.40;;;-4.20;75.80;;;;;;5067024;28;20028;-72
2021/12/23 01:55:53;;;;;;;46.97;20.38;;;-4.20;75.60;;;;;;5037391;28;20476;-72
2021/12/23 01:58:20;;;;;;;47.90;19.08;;;-4.30;75.70;;;;;;5035492;28;20454;-73
2021/12/23 02:00:49;;;;;;;54.83;22.63;;;-4.30;76.00;;;;;;5053459;28;20053;-73
2021/12/23 02:03:16;;;;;;;48.03;19.20;;;-4.30;76.00;;;;;;5053428;28;20341;-73
2021/12/23 02:05:42;;;;;;;41.55;17.42;;;-4.30;76.00;;;;;;5053336;28;20473;-73
2021/12/23 02:08:08;;;;;;;48.60;19.17;;;-4.20;75.70;;;;;;5053341;28;20032;-72
2021/12/23 02:10:33;;;;;;;50.47;19.25;;;-4.10;75.60;;;;;;5053450;28;20025;-73
2021/12/23 02:12:59;;;;;;;45.28;19.05;;;-4.10;75.40;;;;;;5053349;28;20028;-73
2021/12/23 02:15:25;;;;;;;45.75;18.52;;;-4.10;75.20;;;;;;5052549;28;20420;-73
2021/12/23 02:17:52;;;;;;;43.00;17.13;;;-4.00;74.70;;;;;;5053362;28;20070;-77
2021/12/23 02:20:20;;;;;;;41.08;16.42;;;-3.90;74.60;;;;;;5053069;28;20056;-73
2021/12/23 02:22:46;;;;;;;45.58;18.75;;;-3.90;74.20;;;;;;5053164;28;20029;-73
2021/12/23 02:25:13;;;;;;;45.75;17.67;;;-3.80;73.80;;;;;;5052993;28;20033;-72
2021/12/23 02:27:39;;;;;;;43.53;17.85;;;-3.80;73.50;;;;;;5053055;28;20067;-73
2021/12/23 02:30:09;;;;;;;43.22;18.60;;;-3.80;73.50;;;;;;5052943;28;20029;-73
2021/12/23 02:32:35;;;;;;;51.08;18.55;;;-3.80;73.50;;;;;;5052901;28;20017;-73
2021/12/23 02:35:02;;;;;;;42.05;17.40;;;-3.80;73.40;;;;;;5052822;28;20053;-72
2021/12/23 02:37:27;;;;;;;47.65;19.25;;;-3.70;73.50;;;;;;5052887;28;20452;-72
2021/12/23 02:39:53;;;;;;;39.20;16.40;;;-3.80;73.40;;;;;;5052821;28;20028;-72
2021/12/23 02:42:18;;;;;;;43.13;17.42;;;-3.70;73.60;;;;;;5052841;28;20477;-73
2021/12/23 02:44:44;;;;;;;40.10;16.35;;;-3.70;73.50;;;;;;5052824;28;20470;-73
2021/12/23 02:47:10;;;;;;;47.35;17.88;;;-3.70;73.40;;;;;;5052821;28;20074;-73
2021/12/23 02:49:35;;;;;;;42.00;16.98;;;-3.60;73.10;;;;;;5052730;28;20036;-73
2021/12/23 02:52:02;;;;;;;44.88;16.92;;;-3.70;73.20;;;;;;5052629;28;20033;-72
2021/12/23 02:54:28;;;;;;;45.95;18.05;;;-3.70;73.20;;;;;;5052667;28;20469;-72
2021/12/23 02:56:54;;;;;;;44.22;18.38;;;-3.60;73.00;;;;;;5034758;28;20052;-72
2021/12/23 02:59:19;;;;;;;41.72;17.60;;;-3.60;72.90;;;;;;5052608;28;20052;-72
2021/12/23 03:01:45;;;;;;;44.65;16.98;;;-3.50;72.80;;;;;;5034817;28;20517;-72
2021/12/23 03:04:11;;;;;;;41.28;17.80;;;-3.40;72.50;;;;;;5052504;28;20134;-72
2021/12/23 03:06:36;;;;;;;38.90;16.00;;;-3.30;72.30;;;;;;5034561;28;20541;-72
2021/12/23 03:09:04;;;;;;;40.10;16.70;;;-3.20;72.00;;;;;;5034238;28;20025;-72
2021/12/23 03:11:31;;;;;;;42.33;17.85;;;-3.10;71.60;;;;;;5067898;28;20020;-72
2021/12/23 03:13:57;;;;;;;40.63;17.77;;;-3.10;71.40;;;;;;5067991;28;20448;-74
2021/12/23 03:16:28;;;;;;;42.75;17.65;;;-3.00;71.30;;;;;;5052285;28;20033;-72
2021/12/23 03:18:53;;;;;;;42.15;17.55;;;-3.00;71.10;;;;;;5052329;28;20021;-72
2021/12/23 03:21:19;;;;;;;42.88;18.13;;;-2.90;71.30;;;;;;5052303;28;20032;-73
2021/12/23 03:23:45;;;;;;;48.10;19.42;;;-2.90;71.10;;;;;;5052341;28;20532;-73
2021/12/23 03:26:11;;;;;;;44.90;18.63;;;-2.90;71.00;;;;;;5037330;28;20543;-74
2021/12/23 03:28:36;;;;;;;44.85;19.10;;;-2.90;70.80;;;;;;5058454;28;20028;-72
2021/12/23 03:31:03;;;;;;;42.08;18.23;;;-2.80;70.70;;;;;;5057080;28;20465;-72
2021/12/23 03:33:29;;;;;;;43.08;19.08;;;-2.80;70.90;;;;;;5038178;28;20543;-72
2021/12/23 03:35:56;;;;;;;43.58;17.90;;;-2.80;70.60;;;;;;5037978;28;20025;-72
2021/12/23 03:38:23;;;;;;;39.85;17.30;;;-2.80;70.70;;;;;;5056205;28;20058;-72
2021/12/23 03:40:49;;;;;;;44.38;17.38;;;-2.70;71.00;;;;;;5056161;28;20026;-72
2021/12/23 03:43:16;;;;;;;41.70;16.98;;;-2.60;70.80;;;;;;5055963;28;20456;-72
2021/12/23 03:45:44;;;;;;;40.58;17.13;;;-2.50;70.80;;;;;;5055927;28;20395;-73
2021/12/23 03:48:10;;;;;;;40.95;17.60;;;-2.50;70.50;;;;;;5038052;28;20067;-72
2021/12/23 03:50:36;;;;;;;42.22;18.25;;;-2.50;70.40;;;;;;5055868;28;20036;-72
2021/12/23 03:53:02;;;;;;;37.42;17.70;;;-2.40;70.10;;;;;;5037796;28;20025;-73
2021/12/23 03:55:28;;;;;;;41.85;17.23;;;-2.40;70.00;;;;;;5055818;28;20029;-72
2021/12/23 03:57:53;;;;;;;39.60;16.58;;;-2.30;69.80;;;;;;5055922;28;20052;-72
2021/12/23 04:00:21;;;;;;;38.17;17.30;;;-2.30;69.60;;;;;;5055827;28;20025;-72
2021/12/23 04:02:47;;;;;;;39.00;17.55;;;-2.30;69.50;;;;;;5055523;28;20520;-72
2021/12/23 04:05:13;;;;;;;33.10;15.52;;;-2.20;68.90;;;;;;5055658;28;20059;-72
2021/12/23 04:07:38;;;;;;;33.83;15.68;;;-2.20;68.60;;;;;;5055662;28;20020;-72
2021/12/23 04:10:07;;;;;;;33.75;15.00;;;-2.20;68.30;;;;;;5035073;28;20120;-72
2021/12/23 04:12:32;;;;;;;39.17;15.40;;;-2.10;67.90;;;;;;5055593;28;20028;-73
2021/12/23 04:14:58;;;;;;;35.15;15.98;;;-2.00;67.20;;;;;;5055346;28;20021;-73
2021/12/23 04:17:23;;;;;;;33.85;14.85;;;-2.00;67.10;;;;;;5029543;28;20021;-72
2021/12/23 04:19:50;;;;;;;36.17;14.48;;;-1.90;66.80;;;;;;5055550;28;20032;-72
2021/12/23 04:22:15;;;;;;;26.77;12.52;;;-1.80;66.10;;;;;;5055500;28;20111;-72
2021/12/23 04:24:41;;;;;;;35.45;15.00;;;-1.70;66.00;;;;;;5055416;28;20112;-73
2021/12/23 04:27:07;;;;;;;34.67;16.65;;;-1.60;65.80;;;;;;5055307;28;20060;-73
2021/12/23 04:29:33;;;;;;;35.33;14.77;;;-1.70;65.40;;;;;;5055197;28;20032;-73
2021/12/23 04:32:01;;;;;;;30.02;14.18;;;-1.60;65.30;;;;;;5055474;28;20013;-73
2021/12/23 04:34:27;;;;;;;32.75;13.80;;;-1.50;64.80;;;;;;5042439;28;20095;-74
2021/12/23 04:36:53;;;;;;;32.55;13.80;;;-1.40;64.40;;;;;;5034448;28;20029;-74
2021/12/23 04:39:20;;;;;;;29.63;13.63;;;-1.30;64.10;;;;;;5034987;28;20060;-74
2021/12/23 04:41:46;;;;;;;29.65;13.13;;;-1.20;63.60;;;;;;5035186;28;20049;-73
2021/12/23 04:44:11;;;;;;;30.60;13.25;;;-1.20;63.20;;;;;;5035001;28;20067;-74
2021/12/23 04:46:37;;;;;;;29.92;12.73;;;-1.10;63.20;;;;;;5035012;28;20117;-73
2021/12/23 04:49:03;;;;;;;32.97;13.85;;;-1.10;63.10;;;;;;5034945;28;20022;-72
2021/12/23 04:51:29;;;;;;;34.13;15.07;;;-1.10;62.90;;;;;;5034795;28;20100;-72
2021/12/23 04:53:54;;;;;;;31.90;14.85;;;-1.10;62.90;;;;;;5034829;28;20049;-72
2021/12/23 04:56:20;;;;;;;39.53;17.10;;;-1.30;63.50;;;;;;5034680;28;20049;-72
2021/12/23 04:58:46;;;;;;;37.65;15.73;;;-1.60;64.00;;;;;;5034849;28;20029;-72
2021/12/23 05:01:28;;;;;;;35.92;16.55;;;-1.70;65.10;;;;;;5034860;28;20047;-72
2021/12/23 05:03:54;;;;;;;37.35;15.95;;;-1.90;65.80;;;;;;5034726;28;20030;-72
2021/12/23 05:06:20;;;;;;;38.28;16.52;;;-1.90;66.30;;;;;;5034585;28;20371;-72
2021/12/23 05:08:46;;;;;;;34.67;15.30;;;-1.90;66.50;;;;;;5034610;28;20021;-74
2021/12/23 05:11:12;;;;;;;38.50;15.75;;;-2.00;66.50;;;;;;5034586;28;20041;-76
2021/12/23 05:13:38;;;;;;;34.42;14.55;;;-2.00;66.60;;;;;;5034645;28;20052;-73
2021/12/23 05:16:04;;;;;;;37.85;16.25;;;-1.90;66.70;;;;;;5034055;28;20032;-73
2021/12/23 05:18:29;;;;;;;33.90;15.43;;;-1.90;66.70;;;;;;5034739;28;20421;-71
2021/12/23 05:20:55;;;;;;;39.63;16.60;;;-1.90;66.90;;;;;;5034645;28;20091;-75
2021/12/23 05:23:21;;;;;;;33.83;15.63;;;-2.00;67.70;;;;;;5033893;28;20033;-73
2021/12/23 05:25:46;;;;;;;34.33;15.88;;;-2.10;68.00;;;;;;5034325;28;20041;-74
2021/12/23 05:28:13;;;;;;;34.85;15.02;;;-2.10;67.60;;;;;;5034198;28;20021;-74
2021/12/23 05:30:39;;;;;;;36.28;15.32;;;-2.10;67.60;;;;;;5016401;28;20033;-74
2021/12/23 05:33:05;;;;;;;36.78;15.95;;;-2.10;67.40;;;;;;5017389;28;20374;-74
2021/12/23 05:35:30;;;;;;;37.88;16.83;;;-2.00;67.30;;;;;;5053878;28;20048;-74
2021/12/23 05:37:56;;;;;;;37.78;15.43;;;-2.00;67.30;;;;;;5053738;28;20105;-71
2021/12/23 05:40:24;;;;;;;33.22;15.50;;;-2.10;67.50;;;;;;5053964;28;20025;-73
2021/12/23 05:42:51;;;;;;;39.90;15.38;;;-2.10;67.80;;;;;;5053837;28;20049;-74
2021/12/23 05:45:17;;;;;;;32.10;13.60;;;-2.10;68.10;;;;;;5053595;28;20029;-73
2021/12/23 05:47:43;;;;;;;36.10;14.70;;;-2.20;68.10;;;;;;5053720;28;20017;-73
2021/12/23 05:50:11;;;;;;;36.63;15.45;;;-2.20;68.30;;;;;;5035282;28;20029;-73
2021/12/23 05:52:37;;;;;;;40.80;16.33;;;-2.20;68.40;;;;;;5053610;28;20021;-73
2021/12/23 05:55:08;;;;;;;40.00;15.63;;;-2.30;68.20;;;;;;5053537;28;20044;-74
2021/12/23 05:57:34;;;;;;;35.45;15.32;;;-2.30;68.30;;;;;;5053399;28;20480;-73
2021/12/23 06:00:00;;;;;;;38.83;16.83;;;-2.30;68.10;;;;;;5053317;28;20463;-73
2021/12/23 06:02:26;;;;;;;39.75;15.30;;;-2.20;67.90;;;;;;5053589;28;20017;-73
2021/12/23 06:04:52;;;;;;;40.10;16.08;;;-2.20;68.10;;;;;;5053415;28;20029;-74
2021/12/23 06:07:17;;;;;;;36.90;15.43;;;-2.10;68.10;;;;;;5056529;28;20033;-74
2021/12/23 06:09:43;;;;;;;38.45;16.95;;;-2.10;67.90;;;;;;5053368;28;20021;-74
2021/12/23 06:12:09;;;;;;;38.63;16.77;;;-2.10;67.70;;;;;;5053219;28;20024;-75
2021/12/23 06:14:34;;;;;;;41.25;17.00;;;-2.10;67.90;;;;;;5053377;28;20025;-73
2021/12/23 06:17:01;;;;;;;35.47;15.30;;;-2.10;67.80;;;;;;5052975;28;20428;-74
2021/12/23 06:19:27;;;;;;;39.45;17.08;;;-2.00;67.80;;;;;;5068564;28;20025;-74
2021/12/23 06:21:52;;;;;;;38.47;17.30;;;-2.00;67.30;;;;;;5053111;28;20025;-73
2021/12/23 06:24:18;;;;;;;36.25;15.52;;;-2.10;67.50;;;;;;5052567;28;20033;-73
2021/12/23 06:26:44;;;;;;;34.83;15.15;;;-2.00;67.50;;;;;;5052775;28;20025;-74
2021/12/23 06:29:09;;;;;;;34.88;16.80;;;-2.00;67.40;;;;;;5068413;28;20031;-74
2021/12/23 06:31:35;;;;;;;33.42;15.25;;;-1.90;67.40;;;;;;5035212;28;20021;-73
2021/12/23 06:34:00;;;;;;;38.40;16.40;;;-1.80;67.10;;;;;;5034876;28;20102;-73
2021/12/23 06:36:26;;;;;;;32.72;14.65;;;-1.70;67.10;;;;;;5034902;28;20124;-74
2021/12/23 06:38:51;;;;;;;35.40;15.75;;;-1.70;67.00;;;;;;5052748;28;20021;-74
2021/12/23 06:41:18;;;;;;;39.85;16.83;;;-1.60;67.00;;;;;;5068225;28;20029;-73
2021/12/23 06:43:46;;;;;;;35.15;15.95;;;-1.60;66.80;;;;;;5052633;28;20488;-74
2021/12/23 06:46:11;;;;;;;32.38;14.13;;;-1.60;66.70;;;;;;5034818;28;20496;-73
2021/12/23 06:48:37;;;;;;;33.15;14.60;;;-1.50;66.80;;;;;;5052385;28;20060;-73
2021/12/23 06:51:03;;;;;;;36.42;14.90;;;-1.50;67.50;;;;;;5052404;28;20477;-73
2021/12/23 06:53:29;;;;;;;32.97;14.43;;;-1.40;66.30;;;;;;5052389;28;20107;-74
2021/12/23 06:55:55;;;;;;;34.47;15.10;;;-1.30;66.20;;;;;;5052265;28;20035;-74
2021/12/23 06:58:25;;;;;;;33.70;13.98;;;-1.20;65.80;;;;;;5034485;28;20032;-73
2021/12/23 07:00:52;;;;;;;33.35;15.02;;;-1.20;65.70;;;;;;5051700;28;20079;-74
2021/12/23 07:03:18;;;;;;;34.88;14.80;;;-1.10;65.90;;;;;;5052513;28;20108;-73
2021/12/23 07:05:44;;;;;;;32.03;13.57;;;-1.10;65.90;;;;;;5052335;28;20029;-74
2021/12/23 07:08:27;;;;;;;29.13;13.38;;;-1.10;66.00;;;;;;5052269;28;20039;-73
2021/12/23 07:10:52;;;;;;;24.58;11.18;;;-1.10;66.50;;;;;;5052432;28;20108;-74
2021/12/23 07:13:18;;;;;;;23.30;11.00;;;-1.00;66.80;;;;;;5052275;28;20063;-73
2021/12/23 07:15:44;;;;;;;28.75;12.15;;;-1.00;67.20;;;;;;5051842;28;20021;-73
2021/12/23 07:18:09;;;;;;;29.98;14.32;;;-1.00;67.20;;;;;;5051754;28;20471;-73
2021/12/23 07:20:35;;;;;;;32.85;14.43;;;-0.90;66.80;;;;;;5052034;28;20048;-73
2021/12/23 07:23:01;;;;;;;31.75;14.77;;;-0.80;66.30;;;;;;5052130;28;20478;-73
2021/12/23 07:25:27;;;;;;;33.38;15.00;;;-0.80;66.00;;;;;;5052071;28;20116;-72
2021/12/23 07:27:53;;;;;;;28.80;13.93;;;-0.80;66.00;;;;;;5051799;28;20060;-73
2021/12/23 07:30:19;;;;;;;32.40;13.82;;;-0.70;66.10;;;;;;5051852;28;20025;-73
2021/12/23 07:32:46;;;;;;;28.58;14.52;;;-0.70;66.20;;;;;;5051703;28;20381;-73
2021/12/23 07:35:12;;;;;;;33.95;13.10;;;-0.60;66.40;;;;;;5052080;28;20049;-72
2021/12/23 07:37:38;;;;;;;23.75;10.70;;;-0.50;66.60;;;;;;5052621;28;20021;-73
2021/12/23 07:40:05;;;;;;;29.02;11.75;;;-0.50;66.50;;;;;;5051902;28;20107;-73
2021/12/23 07:42:32;;;;;;;23.30;11.63;;;-0.40;66.40;;;;;;5051986;28;20036;-73
2021/12/23 07:44:58;;;;;;;25.23;10.95;;;-0.30;66.40;;;;;;5051561;28;20480;-73
2021/12/23 07:47:23;;;;;;;18.63;9.05;;;-0.20;66.40;;;;;;5051645;28;20382;-74
2021/12/23 07:49:49;;;;;;;23.70;10.90;;;-0.20;66.70;;;;;;5051689;28;20021;-74
2021/12/23 07:52:15;;;;;;;21.33;10.50;;;-0.10;67.00;;;;;;5051786;28;20413;-73
2021/12/23 07:54:41;;;;;;;21.40;10.45;;;0.00;66.90;;;;;;5051702;28;20100;-73
2021/12/23 07:57:07;;;;;;;20.23;9.85;;;0.20;66.60;;;;;;5051600;28;20385;-73
2021/12/23 07:59:33;;;;;;;20.33;9.65;;;0.30;66.50;;;;;;5051698;28;20028;-74
2021/12/23 08:01:59;;;;;;;35.95;15.80;;;0.30;66.70;;;;;;5051792;28;20031;-74
2021/12/23 08:04:25;;;;;;;17.77;8.70;;;0.50;67.10;;;;;;5051724;28;20041;-73
2021/12/23 08:06:55;;;;;;;15.77;7.32;;;0.60;67.30;;;;;;5051770;28;20535;-74
2021/12/23 08:09:22;;;;;;;18.17;8.48;;;0.70;67.20;;;;;;5051646;28;20056;-75
2021/12/23 08:11:48;;;;;;;15.90;8.13;;;0.80;66.80;;;;;;5051744;28;20095;-73
2021/12/23 08:14:13;;;;;;;20.13;7.13;;;1.00;66.80;;;;;;5054868;28;20465;-74
2021/12/23 08:16:39;;;;;;;12.35;6.07;;;1.00;66.60;;;;;;5037321;28;20029;-71
2021/12/23 08:19:05;;;;;;;13.77;5.80;;;1.10;66.70;;;;;;5070425;28;20056;-74
2021/12/23 08:21:30;;;;;;;12.75;5.57;;;1.20;66.40;;;;;;5037231;28;20139;-72
2021/12/23 08:23:56;;;;;;;10.73;5.82;;;1.30;66.30;;;;;;5054853;28;20075;-73
2021/12/23 08:26:27;;;;;;;11.63;5.53;;;1.50;66.30;;;;;;5054886;28;20090;-72
2021/12/23 08:28:54;;;;;;;13.70;5.38;;;1.60;66.30;;;;;;5054930;28;20029;-72
2021/12/23 08:31:21;;;;;;;15.27;7.00;;;1.70;66.10;;;;;;5054721;28;20040;-73
2021/12/23 08:33:48;;;;;;;33.67;8.48;;;1.80;65.80;;;;;;5054322;28;20127;-72
2021/12/23 08:36:13;;;;;;;21.95;8.52;;;2.40;81.80;;;;;;5054553;28;20418;-72
2021/12/23 08:38:42;;;;;;;24.13;8.30;;;3.00;80.90;;;;;;5054661;28;20025;-73
2021/12/23 08:41:08;;;;;;;18.23;9.48;;;3.60;77.60;;;;;;5054560;28;20075;-72
2021/12/23 08:43:34;;;;;;;22.83;9.85;;;3.90;64.10;;;;;;5055438;28;20029;-72
2021/12/23 08:46:00;;;;;;;16.60;9.05;;;3.80;60.10;;;;;;5056537;28;20033;-72
2021/12/23 08:48:25;;;;;;;20.95;10.20;;;3.80;59.20;;;;;;5056335;28;20539;-72
2021/12/23 08:50:51;;;;;;;20.13;9.30;;;3.70;59.50;;;;;;5054280;28;20385;-72
2021/12/23 08:53:17;;;;;;;23.80;11.60;;;3.70;59.80;;;;;;5069920;28;20025;-75
2021/12/23 08:55:42;;;;;;;20.38;10.00;;;3.60;60.10;;;;;;5054474;28;20378;-74
2021/12/23 08:58:08;;;;;;;21.25;10.65;;;3.60;60.60;;;;;;5069583;28;20048;-72
2021/12/23 09:00:36;;;;;;;14.25;8.73;;;3.50;61.10;;;;;;5054135;28;20028;-75
2021/12/23 09:03:02;;;;;;;13.93;7.13;;;3.40;62.20;;;;;;5054175;28;20029;-74
2021/12/23 09:05:28;;;;;;;10.30;6.38;;;3.30;63.10;;;;;;5054391;28;20393;-76
2021/12/23 09:07:54;;;;;;;10.75;5.85;;;3.30;64.00;;;;;;5054217;28;20028;-75
2021/12/23 09:10:20;;;;;;;10.45;5.63;;;3.20;64.50;;;;;;5054181;28;20047;-76
2021/12/23 09:12:46;;;;;;;11.65;5.88;;;3.20;65.30;;;;;;5053984;28;20571;-76
2021/12/23 09:15:12;;;;;;;25.52;10.68;;;3.20;66.00;;;;;;5053836;28;20064;-73
2021/12/23 09:17:38;;;;;;;19.40;9.00;;;3.10;66.00;;;;;;5035822;28;20033;-76
2021/12/23 09:20:06;;;;;;;25.38;11.07;;;3.20;64.90;;;;;;5053977;28;20021;-76
2021/12/23 09:22:31;;;;;;;23.20;11.25;;;3.30;64.10;;;;;;5053791;28;20073;-73
2021/12/23 09:25:02;;;;;;;20.73;9.70;;;3.30;63.80;;;;;;5053327;28;20041;-75
2021/12/23 09:27:36;;;;;;;17.35;7.85;;;3.40;63.90;;;;;;5068767;28;20025;-74
2021/12/23 09:32:56;;;;;;;14.38;7.07;;;3.70;63.80;;;;;;5053625;28;20032;-73
2021/12/23 09:35:24;;;;;;;13.75;7.13;;;3.80;63.90;;;;;;5053746;28;20053;-72
2021/12/23 09:37:51;;;;;;;13.52;6.75;;;3.90;64.00;;;;;;5035465;28;20032;-72
2021/12/23 09:40:18;;;;;;;12.05;7.15;;;3.90;63.90;;;;;;5053500;28;20409;-73
2021/12/23 09:42:46;;;;;;;16.48;7.75;;;4.00;63.90;;;;;;5053394;28;20351;-73
2021/12/23 09:45:17;;;;;;;14.25;7.68;;;4.00;63.60;;;;;;5053177;28;20033;-72
2021/12/23 09:47:45;;;;;;;12.30;6.40;;;4.00;62.90;;;;;;5053326;28;20460;-71
2021/12/23 09:50:12;;;;;;;13.50;7.47;;;4.00;62.90;;;;;;5052799;28;20064;-72
2021/12/23 09:52:46;;;;;;;12.00;6.55;;;4.10;63.20;;;;;;5052792;28;20041;-72
2021/12/23 09:55:14;;;;;;;13.15;6.18;;;4.10;63.20;;;;;;5035116;28;20033;-72
2021/12/23 09:57:40;;;;;;;15.05;7.97;;;4.10;63.20;;;;;;5034734;28;20035;-73
2021/12/23 10:00:09;;;;;;;15.55;7.97;;;4.20;62.80;;;;;;5052652;28;20099;-72
2021/12/23 10:02:35;;;;;;;11.65;5.90;;;4.20;62.70;;;;;;5052316;28;20051;-73
2021/12/23 10:05:02;;;;;;;22.00;11.23;;;4.30;59.30;;;;;;5052876;28;20477;-73
2021/12/23 10:07:27;;;;;;;17.25;8.27;;;4.40;61.10;;;;;;5052827;28;20087;-73
2021/12/23 10:10:06;;;;;;;13.50;8.18;;;4.50;60.40;;;;;;5052816;28;20029;-73
2021/12/23 10:13:10;;;;;;;17.50;8.85;;;4.50;60.00;;;;;;5052729;28;20086;-74
2021/12/23 10:38:08;;;;;;;10.60;6.15;;;5.30;56.40;;;;;;5032586;28;20047;-73
2021/12/23 10:40:37;;;;;;;9.65;5.80;;;5.40;57.00;;;;;;5032516;28;20092;-72
2021/12/23 10:43:03;;;;;;;9.52;5.45;;;5.40;57.00;;;;;;5032459;28;20026;-73
2021/12/23 10:45:52;;;;;;;11.52;4.90;;;5.50;56.70;;;;;;5032592;28;20052;-73
2021/12/23 10:48:18;;;;;;;8.27;4.72;;;5.60;56.00;;;;;;5032580;28;20025;-72
2021/12/23 10:50:51;;;;;;;7.30;4.38;;;5.70;54.60;;;;;;5032335;28;20037;-75
2021/12/23 10:54:21;;;;;;;10.88;4.38;;;5.80;54.10;;;;;;5032506;28;20080;-73
2021/12/23 10:59:06;;;;;;;6.72;3.45;;;6.10;52.40;;;;;;5035504;28;20064;-73
2021/12/23 11:01:33;;;;;;;5.28;3.30;;;6.20;51.80;;;;;;5014229;28;20462;-76
2021/12/23 11:04:04;;;;;;;5.72;2.30;;;6.30;50.50;;;;;;5032086;28;20026;-74
2021/12/23 11:06:42;;;;;;;3.72;2.45;;;6.40;49.30;;;;;;5013781;28;20035;-75
2021/12/23 11:09:36;;;;;;;4.03;2.33;;;6.50;47.90;;;;;;5031964;28;20053;-76
2021/12/23 11:41:53;;;;;;;4.63;2.22;;;7.50;41.90;;;;;;5031965;28;20405;-75
2021/12/23 11:44:19;;;;;;;4.32;2.78;;;7.60;41.10;;;;;;5030371;28;20040;-76
2021/12/23 11:46:53;;;;;;;3.13;2.00;;;7.60;41.50;;;;;;5031569;28;20029;-73
2021/12/23 11:49:20;;;;;;;3.72;1.90;;;7.60;40.90;;;;;;5034242;28;20026;-76
2021/12/23 11:54:22;;;;;;;3.00;1.50;;;7.80;40.30;;;;;;5035320;28;20022;-74
2021/12/23 11:57:04;;;;;;;4.93;1.90;;;8.00;39.80;;;;;;5035302;28;20029;-73
2021/12/23 11:59:32;;;;;;;8.27;2.13;;;8.10;39.90;;;;;;5035510;28;20421;-74
2021/12/23 12:01:58;;;;;;;3.95;2.30;;;8.20;39.70;;;;;;5035418;28;20025;-76
2021/12/23 12:04:28;;;;;;;4.75;2.00;;;8.50;39.20;;;;;;5026754;28;20071;-75
2021/12/23 12:06:55;;;;;;;4.40;2.42;;;8.80;38.40;;;;;;5035141;28;20064;-76
2021/12/23 12:09:26;;;;;;;4.68;2.17;;;9.20;38.00;;;;;;5035135;28;20017;-74
2021/12/23 12:12:09;;;;;;;7.05;1.63;;;9.80;36.30;;;;;;5035135;28;20105;-71
2021/12/23 12:14:40;;;;;;;3.45;1.60;;;10.40;34.90;;;;;;5035270;28;20502;-75
2021/12/23 12:17:26;;;;;;;3.53;1.58;;;10.80;34.00;;;;;;5034935;28;20022;-73
2021/12/23 12:19:56;;;;;;;3.30;1.60;;;10.90;34.10;;;;;;5035014;28;20112;-75
2021/12/23 12:22:51;;;;;;;4.85;2.70;;;11.10;33.60;;;;;;5034885;28;20098;-75
2021/12/23 12:25:23;;;;;;;3.47;2.20;;;11.90;32.60;;;;;;5034398;28;20116;-75
2021/12/23 12:28:10;;;;;;;4.47;2.17;;;12.40;31.30;;;;;;5034935;28;20026;-77
2021/12/23 12:30:39;;;;;;;4.68;2.20;;;12.10;31.20;;;;;;5034921;28;20018;-76
2021/12/23 12:33:25;;;;;;;4.10;2.13;;;11.70;31.40;;;;;;5033272;28;20022;-72
2021/12/23 12:36:05;;;;;;;4.72;1.98;;;11.10;32.50;;;;;;5014609;28;20036;-74
2021/12/23 12:38:50;;;;;;;4.13;1.63;;;10.70;33.10;;;;;;5014617;28;20037;-73
2021/12/23 12:41:24;;;;;;;2.95;1.67;;;10.10;33.60;;;;;;5015022;28;20018;-74
2021/12/23 12:43:59;;;;;;;4.78;1.80;;;9.90;34.10;;;;;;5014887;28;20026;-75
2021/12/23 12:46:35;;;;;;;5.57;2.05;;;9.80;34.70;;;;;;5014890;28;20111;-75
2021/12/23 12:49:08;;;;;;;4.13;2.47;;;9.70;35.00;;;;;;5014832;28;20022;-73
2021/12/23 12:51:37;;;;;;;4.50;2.28;;;9.80;35.40;;;;;;5014484;28;20505;-74
2021/12/23 12:54:12;;;;;;;4.80;2.55;;;9.80;35.70;;;;;;5014269;28;20538;-78
2021/12/23 12:56:45;;;;;;;4.43;2.15;;;9.70;35.90;;;;;;5014748;28;20037;-75
2021/12/23 12:59:12;;;;;;;3.15;1.77;;;9.70;36.10;;;;;;5013838;28;20133;-76
2021/12/23 13:01:45;;;;;;;5.63;2.08;;;9.60;36.40;;;;;;5014576;28;20026;-71
2021/12/23 13:04:23;;;;;;;4.50;2.05;;;9.50;36.60;;;;;;5014080;28;20026;-73
2021/12/23 13:06:51;;;;;;;4.43;2.08;;;9.40;36.80;;;;;;5014126;28;20490;-79
2021/12/23 13:09:35;;;;;;;5.65;1.70;;;9.40;37.00;;;;;;5014424;28;20022;-78
2021/12/23 13:12:04;;;;;;;6.30;2.15;;;9.20;37.10;;;;;;5014180;28;20029;-78
2021/12/23 13:14:58;;;;;;;5.75;1.80;;;9.20;37.30;;;;;;5014584;28;20156;-75
2021/12/23 13:17:41;;;;;;;7.60;2.67;;;9.10;37.90;;;;;;5014389;28;20374;-72
2021/12/23 13:20:07;;;;;;;5.43;2.88;;;9.10;38.50;;;;;;5014218;28;20022;-72
2021/12/23 13:22:34;;;;;;;5.38;2.10;;;9.20;42.00;;;;;;5014357;28;20185;-72
2021/12/23 13:25:02;;;;;;;4.55;2.30;;;9.40;42.10;;;;;;5013835;28;20065;-72
2021/12/23 13:27:28;;;;;;;6.43;2.25;;;9.50;40.90;;;;;;5014157;28;20537;-71
2021/12/23 13:30:02;;;;;;;3.15;1.77;;;9.60;39.60;;;;;;5013917;28;20030;-75
2021/12/23 13:32:28;;;;;;;3.95;2.10;;;9.70;39.10;;;;;;5014000;28;20026;-72
2021/12/23 13:34:54;;;;;;;4.82;1.80;;;9.70;39.60;;;;;;5029820;28;20064;-72
2021/12/23 13:37:19;;;;;;;3.90;2.22;;;9.70;40.50;;;;;;5033560;28;20029;-72
2021/12/23 13:39:45;;;;;;;4.28;2.20;;;9.80;40.50;;;;;;5033481;28;20053;-75
2021/12/23 13:42:12;;;;;;;4.38;2.08;;;9.70;40.50;;;;;;5033157;28;20624;-72
2021/12/23 13:44:41;;;;;;;5.15;1.80;;;9.70;41.00;;;;;;5033442;28;20037;-72
2021/12/23 13:47:11;;;;;;;2.72;1.73;;;9.60;42.50;;;;;;5033315;28;20017;-71
2021/12/23 13:49:46;;;;;;;6.32;2.20;;;9.50;42.20;;;;;;5033256;28;20040;-74
2021/12/23 13:52:31;;;;;;;3.95;1.58;;;9.50;43.00;;;;;;5033289;28;20107;-71